Terminal Aerodrome Forecast
Issued by NWS Wilmington, NC

Current Version | Previous Version | Graphics & Text | Print | Product List | Glossary Off
Versions: 1 2 3 4 5 6 7 8 9 10 11 12

000
FTUS42 KILM 192326
TAFFLO
TAF
KFLO 192326Z 2000/2024 VRB03KT P6SM SKC
      TEMPO 2010/2012 4SM BR
     FM201400 01005KT P6SM SKC=

USA.gov is the U.S. government's official web portal to all federal, state and local government web resources and services.